sensor_id;sensor_type;location;lat;lon;timestamp;pressure;altitude;pressure_sealevel;temperature;humidity
51452;BME280;37521;52.020;-1.740;2023-12-20T00:01:13;100405.13;;;3.45;100.00
51452;BME280;37521;52.020;-1.740;2023-12-20T00:03:42;100405.97;;;3.46;100.00
51452;BME280;37521;52.020;-1.740;2023-12-20T00:06:10;100395.59;;;3.43;100.00
51452;BME280;37521;52.020;-1.740;2023-12-20T00:08:39;100403.38;;;3.44;100.00
51452;BME280;37521;52.020;-1.740;2023-12-20T00:11:08;100406.88;;;3.43;100.00
51452;BME280;37521;52.020;-1.740;2023-12-20T00:13:38;100405.13;;;3.44;100.00
51452;BME280;37521;52.020;-1.740;2023-12-20T00:16:06;100400.81;;;3.43;100.00
51452;BME280;37521;52.020;-1.740;2023-12-20T00:18:35;100388.56;;;3.48;100.00
51452;BME280;37521;52.020;-1.740;2023-12-20T00:21:04;100385.97;;;3.46;100.00
51452;BME280;37521;52.020;-1.740;2023-12-20T00:23:33;100388.59;;;3.45;100.00
51452;BME280;37521;52.020;-1.740;2023-12-20T00:26:01;100388.59;;;3.45;100.00
51452;BME280;37521;52.020;-1.740;2023-12-20T00:28:30;100385.06;;;3.47;100.00
51452;BME280;37521;52.020;-1.740;2023-12-20T00:31:01;100403.31;;;3.52;100.00
51452;BME280;37521;52.020;-1.740;2023-12-20T00:33:30;100385.00;;;3.55;100.00
51452;BME280;37521;52.020;-1.740;2023-12-20T00:35:58;100388.53;;;3.51;100.00
51452;BME280;37521;52.020;-1.740;2023-12-20T00:38:27;100395.53;;;3.46;100.00
51452;BME280;37521;52.020;-1.740;2023-12-20T00:40:56;100405.94;;;3.50;100.00
51452;BME280;37521;52.020;-1.740;2023-12-20T00:43:24;100395.44;;;3.55;100.00
51452;BME280;37521;52.020;-1.740;2023-12-20T00:45:53;100389.28;;;3.59;100.00
51452;BME280;37521;52.020;-1.740;2023-12-20T00:48:24;100377.97;;;3.60;100.00
51452;BME280;37521;52.020;-1.740;2023-12-20T00:50:54;100391.03;;;3.60;100.00
51452;BME280;37521;52.020;-1.740;2023-12-20T00:53:23;100380.59;;;3.59;100.00
51452;BME280;37521;52.020;-1.740;2023-12-20T00:55:51;100392.78;;;3.60;100.00
51452;BME280;37521;52.020;-1.740;2023-12-20T00:58:20;100390.22;;;3.55;100.00
51452;BME280;37521;52.020;-1.740;2023-12-20T01:00:49;100389.38;;;3.51;100.00
51452;BME280;37521;52.020;-1.740;2023-12-20T01:03:18;100393.75;;;3.51;100.00
51452;BME280;37521;52.020;-1.740;2023-12-20T01:05:48;100394.63;;;3.50;100.00
51452;BME280;37521;52.020;-1.740;2023-12-20T01:08:17;100385.97;;;3.48;100.00
51452;BME280;37521;52.020;-1.740;2023-12-20T01:10:45;100386.75;;;3.53;100.00
51452;BME280;37521;52.020;-1.740;2023-12-20T01:13:15;100383.25;;;3.57;100.00
51452;BME280;37521;52.020;-1.740;2023-12-20T01:15:42;100386.66;;;3.61;100.00
51452;BME280;37521;52.020;-1.740;2023-12-20T01:18:11;100373.59;;;3.61;100.00
51452;BME280;37521;52.020;-1.740;2023-12-20T01:20:40;100377.88;;;3.66;100.00
51452;BME280;37521;52.020;-1.740;2023-12-20T01:23:10;100365.66;;;3.71;100.00
51452;BME280;37521;52.020;-1.740;2023-12-20T01:25:39;100365.72;;;3.68;100.00
51452;BME280;37521;52.020;-1.740;2023-12-20T01:28:08;100379.63;;;3.67;100.00
51452;BME280;37521;52.020;-1.740;2023-12-20T01:30:36;100367.41;;;3.68;100.00
51452;BME280;37521;52.020;-1.740;2023-12-20T01:33:05;100356.09;;;3.70;100.00
51452;BME280;37521;52.020;-1.740;2023-12-20T01:35:34;100351.63;;;3.78;100.00
51452;BME280;37521;52.020;-1.740;2023-12-20T01:38:03;100356.00;;;3.78;100.00
51452;BME280;37521;52.020;-1.740;2023-12-20T01:40:33;100353.44;;;3.73;100.00
51452;BME280;37521;52.020;-1.740;2023-12-20T01:43:07;100354.38;;;3.68;100.00
51452;BME280;37521;52.020;-1.740;2023-12-20T01:45:36;100357.00;;;3.66;100.00
51452;BME280;37521;52.020;-1.740;2023-12-20T01:48:05;100362.22;;;3.66;100.00
51452;BME280;37521;52.020;-1.740;2023-12-20T01:50:36;100353.56;;;3.64;100.00
51452;BME280;37521;52.020;-1.740;2023-12-20T01:53:07;100352.72;;;3.62;100.00
51452;BME280;37521;52.020;-1.740;2023-12-20T01:55:40;100353.56;;;3.64;100.00
51452;BME280;37521;52.020;-1.740;2023-12-20T01:58:09;100336.13;;;3.65;100.00
51452;BME280;37521;52.020;-1.740;2023-12-20T02:00:39;100350.94;;;3.64;100.00
51452;BME280;37521;52.020;-1.740;2023-12-20T02:03:08;100344.03;;;3.62;100.00
51452;BME280;37521;52.020;-1.740;2023-12-20T02:05:38;100341.38;;;3.63;100.00
51452;BME280;37521;52.020;-1.740;2023-12-20T02:08:07;100342.25;;;3.64;100.00
51452;BME280;37521;52.020;-1.740;2023-12-20T02:10:35;100342.16;;;3.70;100.00
51452;BME280;37521;52.020;-1.740;2023-12-20T02:13:05;100345.59;;;3.75;100.00
51452;BME280;37521;52.020;-1.740;2023-12-20T02:15:34;100338.66;;;3.72;100.00
51452;BME280;37521;52.020;-1.740;2023-12-20T02:18:04;100341.25;;;3.72;100.00
51452;BME280;37521;52.020;-1.740;2023-12-20T02:20:33;100344.75;;;3.71;100.00
51452;BME280;37521;52.020;-1.740;2023-12-20T02:23:03;100340.34;;;3.76;100.00
51452;BME280;37521;52.020;-1.740;2023-12-20T02:25:32;100339.47;;;3.74;100.00
51452;BME280;37521;52.020;-1.740;2023-12-20T02:28:01;100333.44;;;3.72;100.00
51452;BME280;37521;52.020;-1.740;2023-12-20T02:30:30;100333.41;;;3.74;100.00
51452;BME280;37521;52.020;-1.740;2023-12-20T02:32:59;100325.56;;;3.75;100.00
51452;BME280;37521;52.020;-1.740;2023-12-20T02:35:29;100323.81;;;3.74;100.00
51452;BME280;37521;52.020;-1.740;2023-12-20T02:37:58;100323.78;;;3.77;100.00
51452;BME280;37521;52.020;-1.740;2023-12-20T02:40:28;100332.38;;;3.86;100.00
51452;BME280;37521;52.020;-1.740;2023-12-20T02:42:57;100327.06;;;3.92;100.00
51452;BME280;37521;52.020;-1.740;2023-12-20T02:45:26;100343.66;;;3.88;100.00
51452;BME280;37521;52.020;-1.740;2023-12-20T02:47:55;100349.84;;;3.80;100.00
51452;BME280;37521;52.020;-1.740;2023-12-20T02:50:24;100350.75;;;3.78;100.00
51452;BME280;37521;52.020;-1.740;2023-12-20T02:52:53;100349.94;;;3.74;100.00
51452;BME280;37521;52.020;-1.740;2023-12-20T02:55:21;100348.19;;;3.73;100.00
51452;BME280;37521;52.020;-1.740;2023-12-20T02:57:52;100353.41;;;3.76;100.00
51452;BME280;37521;52.020;-1.740;2023-12-20T03:00:20;100347.31;;;3.74;100.00
51452;BME280;37521;52.020;-1.740;2023-12-20T03:02:49;100341.25;;;3.75;100.00
51452;BME280;37521;52.020;-1.740;2023-12-20T03:05:18;100341.19;;;3.78;100.00
51452;BME280;37521;52.020;-1.740;2023-12-20T03:07:48;100335.88;;;3.85;100.00
51452;BME280;37521;52.020;-1.740;2023-12-20T03:10:18;100335.00;;;3.86;100.00
51452;BME280;37521;52.020;-1.740;2023-12-20T03:12:54;100340.97;;;3.94;100.00
51452;BME280;37521;52.020;-1.740;2023-12-20T03:15:23;100349.59;;;3.99;100.00
51452;BME280;37521;52.020;-1.740;2023-12-20T03:17:52;100346.97;;;4.02;100.00
51452;BME280;37521;52.020;-1.740;2023-12-20T03:20:21;100338.19;;;4.06;100.00
51452;BME280;37521;52.020;-1.740;2023-12-20T03:22:49;100333.84;;;4.05;100.00
51452;BME280;37521;52.020;-1.740;2023-12-20T03:25:18;100333.81;;;4.08;100.00
51452;BME280;37521;52.020;-1.740;2023-12-20T03:27:47;100328.63;;;4.05;100.00
51452;BME280;37521;52.020;-1.740;2023-12-20T03:30:17;100338.28;;;4.01;100.00
51452;BME280;37521;52.020;-1.740;2023-12-20T03:32:47;100333.06;;;3.98;100.00
51452;BME280;37521;52.020;-1.740;2023-12-20T03:35:15;100326.94;;;4.01;100.00
51452;BME280;37521;52.020;-1.740;2023-12-20T03:37:44;100328.59;;;4.06;100.00
51452;BME280;37521;52.020;-1.740;2023-12-20T03:40:13;100316.38;;;4.07;100.00
51452;BME280;37521;52.020;-1.740;2023-12-20T03:42:42;100321.63;;;4.07;100.00
51452;BME280;37521;52.020;-1.740;2023-12-20T03:45:11;100321.63;;;4.08;100.00
51452;BME280;37521;52.020;-1.740;2023-12-20T03:47:41;100325.09;;;4.09;100.00
51452;BME280;37521;52.020;-1.740;2023-12-20T03:50:10;100319.88;;;4.09;100.00
51452;BME280;37521;52.020;-1.740;2023-12-20T03:52:39;100319.84;;;4.07;100.00
51452;BME280;37521;52.020;-1.740;2023-12-20T03:55:08;100314.66;;;4.06;100.00
51452;BME280;37521;52.020;-1.740;2023-12-20T03:57:37;100319.03;;;4.05;100.00
51452;BME280;37521;52.020;-1.740;2023-12-20T04:00:07;100317.25;;;4.09;100.00
51452;BME280;37521;52.020;-1.740;2023-12-20T04:02:42;100310.22;;;4.13;100.00
51452;BME280;37521;52.020;-1.740;2023-12-20T04:05:11;100314.56;;;4.12;100.00
51452;BME280;37521;52.020;-1.740;2023-12-20T04:07:39;100292.56;;;4.27;100.00
51452;BME280;37521;52.020;-1.740;2023-12-20T04:10:09;100313.31;;;4.37;100.00
51452;BME280;37521;52.020;-1.740;2023-12-20T04:12:38;100309.63;;;4.49;100.00
51452;BME280;37521;52.020;-1.740;2023-12-20T04:15:07;100311.25;;;4.56;100.00
51452;BME280;37521;52.020;-1.740;2023-12-20T04:17:39;100306.00;;;4.58;100.00
51452;BME280;37521;52.020;-1.740;2023-12-20T04:20:10;100298.16;;;4.58;100.00
51452;BME280;37521;52.020;-1.740;2023-12-20T04:22:39;100309.47;;;4.58;100.00
51452;BME280;37521;52.020;-1.740;2023-12-20T04:25:08;100301.69;;;4.54;100.00
51452;BME280;37521;52.020;-1.740;2023-12-20T04:27:37;100303.56;;;4.49;100.00
51452;BME280;37521;52.020;-1.740;2023-12-20T04:30:07;100303.59;;;4.46;100.00
51452;BME280;37521;52.020;-1.740;2023-12-20T04:32:36;100306.19;;;4.46;100.00
51452;BME280;37521;52.020;-1.740;2023-12-20T04:35:05;100296.56;;;4.48;100.00
51452;BME280;37521;52.020;-1.740;2023-12-20T04:37:37;100296.53;;;4.51;100.00
51452;BME280;37521;52.020;-1.740;2023-12-20T04:40:07;100291.34;;;4.49;100.00
51452;BME280;37521;52.020;-1.740;2023-12-20T04:42:36;100299.16;;;4.51;100.00
51452;BME280;37521;52.020;-1.740;2023-12-20T04:45:05;100298.31;;;4.47;100.00
51452;BME280;37521;52.020;-1.740;2023-12-20T04:47:34;100294.06;;;4.43;100.00
51452;BME280;37521;52.020;-1.740;2023-12-20T04:50:03;100306.19;;;4.46;100.00
51452;BME280;37521;52.020;-1.740;2023-12-20T04:52:32;100293.94;;;4.48;100.00
51452;BME280;37521;52.020;-1.740;2023-12-20T04:55:03;100278.28;;;4.46;100.00
51452;BME280;37521;52.020;-1.740;2023-12-20T04:57:32;100266.19;;;4.42;100.00
51452;BME280;37521;52.020;-1.740;2023-12-20T05:00:00;100267.94;;;4.42;100.00
51452;BME280;37521;52.020;-1.740;2023-12-20T05:02:30;100262.72;;;4.42;100.00
51452;BME280;37521;52.020;-1.740;2023-12-20T05:04:58;100264.44;;;4.43;100.00
51452;BME280;37521;52.020;-1.740;2023-12-20T05:07:27;100261.00;;;4.39;100.00
51452;BME280;37521;52.020;-1.740;2023-12-20T05:09:56;100277.53;;;4.40;100.00
51452;BME280;37521;52.020;-1.740;2023-12-20T05:12:26;100257.44;;;4.43;100.00
51452;BME280;37521;52.020;-1.740;2023-12-20T05:14:55;100272.22;;;4.46;100.00
51452;BME280;37521;52.020;-1.740;2023-12-20T05:17:23;100265.16;;;4.51;100.00
51452;BME280;37521;52.020;-1.740;2023-12-20T05:19:52;100265.09;;;4.54;100.00
51452;BME280;37521;52.020;-1.740;2023-12-20T05:22:21;100264.19;;;4.56;100.00
51452;BME280;37521;52.020;-1.740;2023-12-20T05:24:50;100266.69;;;4.61;100.00
51452;BME280;37521;52.020;-1.740;2023-12-20T05:27:19;100256.13;;;4.67;100.00
51452;BME280;37521;52.020;-1.740;2023-12-20T05:29:49;100264.84;;;4.69;100.00
51452;BME280;37521;52.020;-1.740;2023-12-20T05:32:18;100266.59;;;4.67;100.00
51452;BME280;37521;52.020;-1.740;2023-12-20T05:34:47;100262.38;;;4.61;100.00
51452;BME280;37521;52.020;-1.740;2023-12-20T05:37:16;100264.94;;;4.63;100.00
51452;BME280;37521;52.020;-1.740;2023-12-20T05:39:44;100261.38;;;4.67;100.00
51452;BME280;37521;52.020;-1.740;2023-12-20T05:42:13;100248.28;;;4.67;100.00
51452;BME280;37521;52.020;-1.740;2023-12-20T05:44:42;100263.94;;;4.70;100.00
51452;BME280;37521;52.020;-1.740;2023-12-20T05:47:12;100251.66;;;4.74;100.00
51452;BME280;37521;52.020;-1.740;2023-12-20T05:49:41;100255.13;;;4.76;100.00
51452;BME280;37521;52.020;-1.740;2023-12-20T05:52:10;100254.22;;;4.77;100.00
51452;BME280;37521;52.020;-1.740;2023-12-20T05:54:38;100256.78;;;4.80;100.00
51452;BME280;37521;52.020;-1.740;2023-12-20T05:57:07;100265.38;;;4.86;100.00
51452;BME280;37521;52.020;-1.740;2023-12-20T05:59:36;100257.44;;;4.91;100.00
51452;BME280;37521;52.020;-1.740;2023-12-20T06:02:05;100260.84;;;4.95;100.00
51452;BME280;37521;52.020;-1.740;2023-12-20T06:04:35;100270.34;;;5.00;100.00
51452;BME280;37521;52.020;-1.740;2023-12-20T06:07:04;100262.47;;;5.02;100.00
51452;BME280;37521;52.020;-1.740;2023-12-20T06:09:32;100268.56;;;5.02;100.00
51452;BME280;37521;52.020;-1.740;2023-12-20T06:12:01;100259.00;;;5.00;100.00
51452;BME280;37521;52.020;-1.740;2023-12-20T06:14:30;100270.34;;;5.00;100.00
51452;BME280;37521;52.020;-1.740;2023-12-20T06:16:59;100265.97;;;5.01;100.00
51452;BME280;37521;52.020;-1.740;2023-12-20T06:19:28;100257.22;;;5.03;100.00
51452;BME280;37521;52.020;-1.740;2023-12-20T06:21:58;100263.25;;;5.05;100.00
51452;BME280;37521;52.020;-1.740;2023-12-20T06:24:27;100256.31;;;5.04;100.00
51452;BME280;37521;52.020;-1.740;2023-12-20T06:26:55;100258.97;;;5.03;100.00
51452;BME280;37521;52.020;-1.740;2023-12-20T06:29:24;100262.47;;;5.00;100.00
51452;BME280;37521;52.020;-1.740;2023-12-20T06:31:53;100268.56;;;5.02;100.00
51452;BME280;37521;52.020;-1.740;2023-12-20T06:34:21;100276.44;;;5.01;100.00
51452;BME280;37521;52.020;-1.740;2023-12-20T06:36:50;100271.28;;;4.98;100.00
51452;BME280;37521;52.020;-1.740;2023-12-20T06:39:20;100274.78;;;4.97;100.00
51452;BME280;37521;52.020;-1.740;2023-12-20T06:41:49;100258.22;;;4.96;100.00
51452;BME280;37521;52.020;-1.740;2023-12-20T06:44:18;100254.72;;;4.97;100.00
51452;BME280;37521;52.020;-1.740;2023-12-20T06:46:47;100250.38;;;4.95;100.00
51452;BME280;37521;52.020;-1.740;2023-12-20T06:49:15;100239.88;;;4.98;100.00
51452;BME280;37521;52.020;-1.740;2023-12-20T06:51:45;100241.56;;;5.00;100.00
51452;BME280;37521;52.020;-1.740;2023-12-20T06:54:14;100224.09;;;5.01;100.00
51452;BME280;37521;52.020;-1.740;2023-12-20T06:56:44;100217.22;;;4.97;100.00
51452;BME280;37521;52.020;-1.740;2023-12-20T06:59:13;100218.06;;;4.97;100.00
51452;BME280;37521;52.020;-1.740;2023-12-20T07:01:42;100220.66;;;4.99;100.00
51452;BME280;37521;52.020;-1.740;2023-12-20T07:04:11;100237.22;;;4.99;100.00
51452;BME280;37521;52.020;-1.740;2023-12-20T07:06:40;100225.06;;;4.97;100.00
51452;BME280;37521;52.020;-1.740;2023-12-20T07:09:08;100245.16;;;4.95;100.00
51452;BME280;37521;52.020;-1.740;2023-12-20T07:11:40;100251.28;;;4.95;100.00
51452;BME280;37521;52.020;-1.740;2023-12-20T07:14:10;100254.66;;;4.99;100.00
51452;BME280;37521;52.020;-1.740;2023-12-20T07:16:39;100239.91;;;4.95;100.00
51452;BME280;37521;52.020;-1.740;2023-12-20T07:19:08;100245.31;;;4.87;100.00
51452;BME280;37521;52.020;-1.740;2023-12-20T07:21:37;100247.94;;;4.85;100.00
51452;BME280;37521;52.020;-1.740;2023-12-20T07:24:06;100240.91;;;4.89;100.00
51452;BME280;37521;52.020;-1.740;2023-12-20T07:26:35;100237.28;;;4.95;100.00
51452;BME280;37521;52.020;-1.740;2023-12-20T07:29:05;100217.22;;;4.97;100.00
51452;BME280;37521;52.020;-1.740;2023-12-20T07:31:35;100225.84;;;5.02;100.00
51452;BME280;37521;52.020;-1.740;2023-12-20T07:34:04;100246.69;;;5.05;100.00
51452;BME280;37521;52.020;-1.740;2023-12-20T07:36:33;100249.25;;;5.08;100.00
51452;BME280;37521;52.020;-1.740;2023-12-20T07:39:01;100243.03;;;5.15;100.00
51452;BME280;37521;52.020;-1.740;2023-12-20T07:41:30;100243.75;;;5.22;100.00
51452;BME280;37521;52.020;-1.740;2023-12-20T07:43:59;100250.63;;;5.26;100.00
51452;BME280;37521;52.020;-1.740;2023-12-20T07:46:27;100256.72;;;5.26;100.00
51452;BME280;37521;52.020;-1.740;2023-12-20T07:48:58;100263.75;;;5.24;100.00
51452;BME280;37521;52.020;-1.740;2023-12-20T07:51:27;100244.56;;;5.24;100.00
51452;BME280;37521;52.020;-1.740;2023-12-20T07:53:55;100242.75;;;5.27;100.00
51452;BME280;37521;52.020;-1.740;2023-12-20T07:56:24;100244.53;;;5.25;100.00
51452;BME280;37521;52.020;-1.740;2023-12-20T07:58:53;100264.59;;;5.26;100.00
51452;BME280;37521;52.020;-1.740;2023-12-20T08:01:23;100260.13;;;5.31;100.00
51452;BME280;37521;52.020;-1.740;2023-12-20T08:03:52;100262.75;;;5.31;100.00
51452;BME280;37521;52.020;-1.740;2023-12-20T08:06:22;100267.94;;;5.33;100.00
51452;BME280;37521;52.020;-1.740;2023-12-20T08:08:51;100268.00;;;5.30;100.00
51452;BME280;37521;52.020;-1.740;2023-12-20T08:11:28;100265.34;;;5.31;100.00
51452;BME280;37521;52.020;-1.740;2023-12-20T08:13:57;100277.47;;;5.37;100.00
51452;BME280;37521;52.020;-1.740;2023-12-20T08:16:26;100275.75;;;5.34;100.00
51452;BME280;37521;52.020;-1.740;2023-12-20T08:18:55;100288.09;;;5.29;100.00
51452;BME280;37521;52.020;-1.740;2023-12-20T08:21:25;100274.16;;;5.27;100.00
51452;BME280;37521;52.020;-1.740;2023-12-20T08:23:54;100281.22;;;5.24;100.00
51452;BME280;37521;52.020;-1.740;2023-12-20T08:26:23;100284.75;;;5.21;100.00
51452;BME280;37521;52.020;-1.740;2023-12-20T08:28:52;100279.50;;;5.23;100.00
51452;BME280;37521;52.020;-1.740;2023-12-20T08:31:22;100268.09;;;5.25;100.00
51452;BME280;37521;52.020;-1.740;2023-12-20T08:33:51;100271.47;;;5.32;100.00
51452;BME280;37521;52.020;-1.740;2023-12-20T08:36:21;100266.19;;;5.33;100.00
51452;BME280;37521;52.020;-1.740;2023-12-20T08:38:52;100253.91;;;5.37;100.00
51452;BME280;37521;52.020;-1.740;2023-12-20T08:41:22;100254.75;;;5.37;100.00
51452;BME280;37521;52.020;-1.740;2023-12-20T08:43:51;100245.09;;;5.39;100.00
51452;BME280;37521;52.020;-1.740;2023-12-20T08:46:19;100239.88;;;5.39;100.00
51452;BME280;37521;52.020;-1.740;2023-12-20T08:48:48;100236.31;;;5.43;100.00
51452;BME280;37521;52.020;-1.740;2023-12-20T08:51:17;100238.88;;;5.45;100.00
51452;BME280;37521;52.020;-1.740;2023-12-20T08:53:46;100244.88;;;5.50;100.00
51452;BME280;37521;52.020;-1.740;2023-12-20T08:56:17;100243.91;;;5.56;100.00
51452;BME280;37521;52.020;-1.740;2023-12-20T08:58:46;100258.56;;;5.63;100.00
51452;BME280;37521;52.020;-1.740;2023-12-20T09:01:15;100268.88;;;5.70;100.00
51452;BME280;37521;52.020;-1.740;2023-12-20T09:03:44;100253.94;;;5.76;100.00
51452;BME280;37521;52.020;-1.740;2023-12-20T09:06:13;100253.81;;;5.80;100.00
51452;BME280;37521;52.020;-1.740;2023-12-20T09:08:41;100262.56;;;5.79;100.00
51452;BME280;37521;52.020;-1.740;2023-12-20T09:11:10;100267.81;;;5.79;100.00
51452;BME280;37521;52.020;-1.740;2023-12-20T09:13:41;100277.38;;;5.80;100.00
51452;BME280;37521;52.020;-1.740;2023-12-20T09:16:10;100271.28;;;5.80;100.00
51452;BME280;37521;52.020;-1.740;2023-12-20T09:18:40;100259.91;;;5.82;100.00
51452;BME280;37521;52.020;-1.740;2023-12-20T09:21:09;100257.28;;;5.82;100.00
51452;BME280;37521;52.020;-1.740;2023-12-20T09:23:38;100255.53;;;5.81;100.00
51452;BME280;37521;52.020;-1.740;2023-12-20T09:26:07;100260.75;;;5.81;100.00
51452;BME280;37521;52.020;-1.740;2023-12-20T09:28:35;100245.91;;;5.82;100.00
51452;BME280;37521;52.020;-1.740;2023-12-20T09:31:06;100227.47;;;5.86;100.00
51452;BME280;37521;52.020;-1.740;2023-12-20T09:33:35;100241.41;;;5.87;100.00
51452;BME280;37521;52.020;-1.740;2023-12-20T09:36:05;100237.91;;;5.88;100.00
51452;BME280;37521;52.020;-1.740;2023-12-20T09:38:34;100242.28;;;5.89;100.00
51452;BME280;37521;52.020;-1.740;2023-12-20T09:41:03;100244.78;;;5.93;100.00
51452;BME280;37521;52.020;-1.740;2023-12-20T09:43:35;100250.88;;;5.95;100.00
51452;BME280;37521;52.020;-1.740;2023-12-20T09:46:07;100244.75;;;5.96;100.00
51452;BME280;37521;52.020;-1.740;2023-12-20T09:48:38;100249.03;;;5.99;100.00
51452;BME280;37521;52.020;-1.740;2023-12-20T09:51:08;100262.19;;;5.97;100.00
51452;BME280;37521;52.020;-1.740;2023-12-20T09:53:38;100258.66;;;5.98;100.00
51452;BME280;37521;52.020;-1.740;2023-12-20T09:56:08;100270.88;;;5.99;100.00
51452;BME280;37521;52.020;-1.740;2023-12-20T09:58:37;100258.56;;;6.01;100.00
51452;BME280;37521;52.020;-1.740;2023-12-20T10:01:08;100257.66;;;6.04;100.00
51452;BME280;37521;52.020;-1.740;2023-12-20T10:03:39;100272.44;;;6.07;100.00
51452;BME280;37521;52.020;-1.740;2023-12-20T10:06:10;100268.00;;;6.10;100.00
51452;BME280;37521;52.020;-1.740;2023-12-20T10:08:39;100279.34;;;6.11;100.00
51452;BME280;37521;52.020;-1.740;2023-12-20T10:11:08;100267.06;;;6.13;100.00
51452;BME280;37521;52.020;-1.740;2023-12-20T10:13:39;100262.66;;;6.13;100.00
51452;BME280;37521;52.020;-1.740;2023-12-20T10:16:10;100249.56;;;6.13;100.00
51452;BME280;37521;52.020;-1.740;2023-12-20T10:18:39;100248.66;;;6.16;100.00
51452;BME280;37521;52.020;-1.740;2023-12-20T10:21:09;100251.19;;;6.19;100.00
51452;BME280;37521;52.020;-1.740;2023-12-20T10:23:39;100239.78;;;6.20;100.00
51452;BME280;37521;52.020;-1.740;2023-12-20T10:26:08;100244.13;;;6.21;100.00
51452;BME280;37521;52.020;-1.740;2023-12-20T10:28:37;100224.72;;;6.28;100.00
51452;BME280;37521;52.020;-1.740;2023-12-20T10:31:06;100218.50;;;6.32;100.00
51452;BME280;37521;52.020;-1.740;2023-12-20T10:33:36;100219.31;;;6.34;100.00
51452;BME280;37521;52.020;-1.740;2023-12-20T10:36:09;100214.81;;;6.39;100.00
51452;BME280;37521;52.020;-1.740;2023-12-20T10:38:42;100204.28;;;6.42;100.00
51452;BME280;37521;52.020;-1.740;2023-12-20T10:41:11;100213.75;;;6.46;100.00
51452;BME280;37521;52.020;-1.740;2023-12-20T10:43:41;100209.31;;;6.50;100.00
51452;BME280;37521;52.020;-1.740;2023-12-20T10:46:10;100207.50;;;6.52;100.00
51452;BME280;37521;52.020;-1.740;2023-12-20T10:48:41;100194.34;;;6.53;100.00
51452;BME280;37521;52.020;-1.740;2023-12-20T10:51:11;100202.16;;;6.55;100.00
51452;BME280;37521;52.020;-1.740;2023-12-20T10:53:40;100189.03;;;6.57;100.00
51452;BME280;37521;52.020;-1.740;2023-12-20T10:56:12;100195.19;;;6.55;100.00
51452;BME280;37521;52.020;-1.740;2023-12-20T10:58:45;100187.41;;;6.51;100.00
51452;BME280;37521;52.020;-1.740;2023-12-20T11:01:14;100191.91;;;6.46;100.00
51452;BME280;37521;52.020;-1.740;2023-12-20T11:03:50;100198.13;;;6.43;100.00
51452;BME280;37521;52.020;-1.740;2023-12-20T11:06:29;100198.94;;;6.45;100.00
51452;BME280;37521;52.020;-1.740;2023-12-20T11:09:10;100204.66;;;6.60;100.00
51452;BME280;37521;52.020;-1.740;2023-12-20T11:11:52;100193.94;;;6.69;100.00
51452;BME280;37521;52.020;-1.740;2023-12-20T11:14:29;100182.59;;;6.67;100.00
51452;BME280;37521;52.020;-1.740;2023-12-20T11:17:10;100172.94;;;6.69;100.00
51452;BME280;37521;52.020;-1.740;2023-12-20T11:20:04;100168.28;;;6.78;100.00
51452;BME280;37521;52.020;-1.740;2023-12-20T11:22:33;100152.94;;;6.94;100.00
51452;BME280;37521;52.020;-1.740;2023-12-20T11:25:09;100138.47;;;7.10;100.00
51452;BME280;37521;52.020;-1.740;2023-12-20T11:27:40;100132.88;;;7.23;100.00
51452;BME280;37521;52.020;-1.740;2023-12-20T11:30:11;100123.97;;;7.27;100.00
51452;BME280;37521;52.020;-1.740;2023-12-20T11:32:42;100120.63;;;7.22;100.00
51452;BME280;37521;52.020;-1.740;2023-12-20T11:35:19;100097.94;;;7.19;100.00
51452;BME280;37521;52.020;-1.740;2023-12-20T11:37:51;100094.47;;;7.19;100.00
51452;BME280;37521;52.020;-1.740;2023-12-20T11:40:19;100098.81;;;7.20;100.00
51452;BME280;37521;52.020;-1.740;2023-12-20T11:42:50;100098.75;;;7.21;100.00
51452;BME280;37521;52.020;-1.740;2023-12-20T11:45:21;100100.63;;;7.18;100.00
51452;BME280;37521;52.020;-1.740;2023-12-20T11:47:56;100090.25;;;7.13;100.00
51452;BME280;37521;52.020;-1.740;2023-12-20T11:50:27;100094.72;;;7.11;100.00
51452;BME280;37521;52.020;-1.740;2023-12-20T11:52:57;100084.16;;;7.13;100.00
51452;BME280;37521;52.020;-1.740;2023-12-20T11:55:26;100079.69;;;7.15;100.00
51452;BME280;37521;52.020;-1.740;2023-12-20T11:57:55;100080.72;;;7.10;100.00
51452;BME280;37521;52.020;-1.740;2023-12-20T12:00:25;100068.59;;;7.06;100.00
51452;BME280;37521;52.020;-1.740;2023-12-20T12:02:57;100067.91;;;7.00;100.00
51452;BME280;37521;52.020;-1.740;2023-12-20T12:05:28;100072.41;;;6.96;100.00
51452;BME280;37521;52.020;-1.740;2023-12-20T12:07:59;100082.91;;;6.96;100.00
51452;BME280;37521;52.020;-1.740;2023-12-20T12:10:28;100078.34;;;7.01;100.00
51452;BME280;37521;52.020;-1.740;2023-12-20T12:12:57;100061.63;;;7.05;100.00
51452;BME280;37521;52.020;-1.740;2023-12-20T12:15:26;100062.34;;;7.10;100.00
51452;BME280;37521;52.020;-1.740;2023-12-20T12:17:56;100068.22;;;7.19;100.00
51452;BME280;37521;52.020;-1.740;2023-12-20T12:20:28;100059.28;;;7.24;100.00
51452;BME280;37521;52.020;-1.740;2023-12-20T12:23:00;100074.84;;;7.30;100.00
51452;BME280;37521;52.020;-1.740;2023-12-20T12:25:29;100078.41;;;7.28;100.00
51452;BME280;37521;52.020;-1.740;2023-12-20T12:27:59;100065.53;;;7.20;100.00
51452;BME280;37521;52.020;-1.740;2023-12-20T12:30:28;100057.84;;;7.14;100.00
51452;BME280;37521;52.020;-1.740;2023-12-20T12:33:05;100056.06;;;7.15;100.00
51452;BME280;37521;52.020;-1.740;2023-12-20T12:35:36;100070.84;;;7.19;100.00
51452;BME280;37521;52.020;-1.740;2023-12-20T12:38:07;100054.94;;;7.23;100.00
51452;BME280;37521;52.020;-1.740;2023-12-20T12:40:36;100060.00;;;7.29;100.00
51452;BME280;37521;52.020;-1.740;2023-12-20T12:43:07;100060.66;;;7.36;100.00
51452;BME280;37521;52.020;-1.740;2023-12-20T12:45:36;100046.50;;;7.40;100.00
51452;BME280;37521;52.020;-1.740;2023-12-20T12:48:05;100027.13;;;7.44;100.00
51452;BME280;37521;52.020;-1.740;2023-12-20T12:50:36;100029.56;;;7.49;100.00
51452;BME280;37521;52.020;-1.740;2023-12-20T12:53:05;100018.13;;;7.51;100.00